Time;durP1;ratioP1;P1;durP2;ratioP2;P2;SDS_P1;SDS_P2;PMS_P1;PMS_P2;Temp;Humidity;BMP_temperature;BMP_pressure;BME280_temperature;BME280_humidity;BME280_pressure;Samples;Min_cycle;Max_cycle;Signal;HPM_P1;HPM_P2
2022/03/19 00:03:40;;;;;;;;;;;9.20;83.40;;;;;;8413153;28;20392;-67
2022/03/19 00:07:42;;;;;;;;;;;9.10;83.00;;;;;;8411977;28;19976;-68
2022/03/19 00:11:44;;;;;;;;;;;9.10;83.00;;;;;;8428262;28;20419;-68
2022/03/19 00:15:45;;;;;;;;;;;9.00;83.00;;;;;;8422672;28;19966;-68
2022/03/19 00:19:47;;;;;;;;;;;9.00;83.40;;;;;;8420818;28;20402;-68
2022/03/19 00:23:48;;;;;;;;;;;8.90;83.70;;;;;;8422833;28;19967;-68
2022/03/19 00:27:50;;;;;;;;;;;8.90;83.60;;;;;;8417534;28;19928;-67
2022/03/19 00:31:52;;;;;;;;;;;8.90;83.20;;;;;;8422114;28;20387;-68
2022/03/19 00:35:53;;;;;;;;;;;8.80;83.00;;;;;;8409200;28;20049;-68
2022/03/19 00:39:55;;;;;;;;;;;8.70;83.60;;;;;;8414204;28;19964;-68
2022/03/19 00:43:57;;;;;;;;;;;8.70;84.50;;;;;;8422154;28;19962;-68
2022/03/19 00:47:58;;;;;;;;;;;8.60;84.30;;;;;;8415570;28;19964;-68
2022/03/19 00:52:00;;;;;;;;;;;8.60;84.40;;;;;;8419537;28;20297;-68
2022/03/19 00:56:02;;;;;;;;;;;8.50;84.70;;;;;;8427676;28;19968;-68
2022/03/19 01:00:04;;;;;;;;;;;8.40;85.00;;;;;;8407637;28;19931;-67
2022/03/19 01:04:06;;;;;;;;;;;8.40;85.00;;;;;;8421659;28;19920;-68
2022/03/19 01:08:08;;;;;;;;;;;8.40;84.90;;;;;;8393025;28;20335;-68
2022/03/19 01:12:09;;;;;;;;;;;8.30;85.80;;;;;;8421962;28;20305;-68
2022/03/19 01:16:11;;;;;;;;;;;8.20;85.30;;;;;;8408317;28;19956;-68
2022/03/19 01:20:13;;;;;;;;;;;8.20;85.40;;;;;;8420948;28;19924;-68
2022/03/19 01:24:15;;;;;;;;;;;8.10;85.70;;;;;;8401323;28;19978;-68
2022/03/19 01:28:17;;;;;;;;;;;8.00;85.40;;;;;;8410413;28;19963;-68
2022/03/19 01:32:18;;;;;;;;;;;8.00;85.00;;;;;;8419121;28;19920;-68
2022/03/19 01:36:20;;;;;;;;;;;8.00;84.90;;;;;;8418316;28;19967;-68
2022/03/19 01:40:22;;;;;;;;;;;7.90;85.00;;;;;;8407228;28;19971;-68
2022/03/19 01:44:23;;;;;;;;;;;7.90;85.10;;;;;;8413056;28;19934;-68
2022/03/19 01:48:25;;;;;;;;;;;7.80;85.50;;;;;;8414985;28;19976;-68
2022/03/19 01:52:28;;;;;;;;;;;7.70;85.60;;;;;;8405995;28;22411;-68
2022/03/19 01:56:30;;;;;;;;;;;7.70;86.00;;;;;;8416309;28;19920;-68
2022/03/19 02:00:32;;;;;;;;;;;7.60;86.10;;;;;;8410800;28;19924;-68
2022/03/19 02:04:34;;;;;;;;;;;7.60;86.00;;;;;;8421365;28;19924;-67
2022/03/19 02:08:37;;;;;;;;;;;7.50;85.80;;;;;;8417413;28;19964;-67
2022/03/19 02:12:39;;;;;;;;;;;7.50;86.10;;;;;;8418718;28;19927;-67
2022/03/19 02:16:42;;;;;;;;;;;7.50;86.60;;;;;;8397559;28;19990;-68
2022/03/19 02:20:43;;;;;;;;;;;7.40;86.60;;;;;;8406897;28;20081;-68
2022/03/19 02:29:06;;;;;;;;;;;7.30;86.90;;;;;;8418725;28;19951;-67
2022/03/19 02:33:07;;;;;;;;;;;7.30;87.20;;;;;;8415603;28;19925;-67
2022/03/19 02:37:09;;;;;;;;;;;7.20;87.50;;;;;;8413954;28;19960;-68
2022/03/19 02:41:11;;;;;;;;;;;7.20;87.90;;;;;;8411252;28;19959;-68
2022/03/19 02:45:12;;;;;;;;;;;7.10;88.00;;;;;;8424186;28;19956;-67
2022/03/19 02:49:14;;;;;;;;;;;7.00;87.90;;;;;;8412265;28;20387;-68
2022/03/19 02:53:16;;;;;;;;;;;7.00;88.10;;;;;;8407296;28;20497;-67
2022/03/19 02:57:18;;;;;;;;;;;7.00;87.90;;;;;;8416558;28;19959;-68
2022/03/19 03:01:19;;;;;;;;;;;7.00;87.80;;;;;;8415342;28;20271;-68
2022/03/19 03:05:21;;;;;;;;;;;6.90;87.80;;;;;;8413590;28;19924;-67
2022/03/19 03:09:23;;;;;;;;;;;6.90;87.70;;;;;;8388144;28;20336;-68
2022/03/19 03:13:25;;;;;;;;;;;6.80;87.40;;;;;;8390133;28;20004;-68
2022/03/19 03:17:27;;;;;;;;;;;6.80;87.40;;;;;;8416154;28;19959;-68
2022/03/19 03:21:29;;;;;;;;;;;6.80;87.80;;;;;;8421450;28;19971;-68
2022/03/19 03:25:31;;;;;;;;;;;6.70;87.70;;;;;;8403653;28;20386;-68
2022/03/19 03:29:32;;;;;;;;;;;6.60;87.50;;;;;;8410646;28;20023;-67
2022/03/19 03:33:34;;;;;;;;;;;6.60;87.50;;;;;;8413250;28;20015;-68
2022/03/19 03:37:35;;;;;;;;;;;6.50;87.40;;;;;;8425922;28;19934;-68
2022/03/19 03:41:37;;;;;;;;;;;6.50;87.80;;;;;;8413732;28;19920;-68
2022/03/19 03:45:39;;;;;;;;;;;6.50;87.50;;;;;;8415895;28;19967;-67
2022/03/19 03:49:40;;;;;;;;;;;6.50;87.30;;;;;;8417433;28;19920;-67
2022/03/19 03:53:43;;;;;;;;;;;6.40;86.70;;;;;;8403763;28;20352;-68
2022/03/19 03:57:45;;;;;;;;;;;6.40;86.60;;;;;;8424905;28;19967;-68
2022/03/19 04:01:47;;;;;;;;;;;6.30;86.90;;;;;;8393809;28;19974;-67
2022/03/19 04:05:49;;;;;;;;;;;6.30;87.00;;;;;;8412037;28;19926;-67
2022/03/19 04:09:50;;;;;;;;;;;6.30;87.00;;;;;;8386887;28;19920;-68
2022/03/19 04:13:52;;;;;;;;;;;6.30;87.10;;;;;;8422936;28;20364;-68
2022/03/19 04:17:56;;;;;;;;;;;6.20;87.50;;;;;;8421629;28;20343;-68
2022/03/19 04:21:58;;;;;;;;;;;6.10;87.20;;;;;;8421914;28;19955;-68
2022/03/19 04:26:00;;;;;;;;;;;6.10;87.30;;;;;;8406666;28;20402;-68
2022/03/19 04:30:02;;;;;;;;;;;6.10;87.50;;;;;;8417786;28;19920;-68
2022/03/19 04:34:03;;;;;;;;;;;6.10;88.30;;;;;;8429636;28;19971;-67
2022/03/19 04:38:09;;;;;;;;;;;6.00;88.00;;;;;;8422138;28;19919;-67
2022/03/19 04:42:11;;;;;;;;;;;6.00;88.00;;;;;;8392407;28;19984;-68
2022/03/19 04:46:12;;;;;;;;;;;6.00;87.90;;;;;;8406929;28;22343;-68
2022/03/19 04:50:14;;;;;;;;;;;5.90;88.00;;;;;;8398628;28;19924;-68
2022/03/19 04:54:16;;;;;;;;;;;5.90;88.00;;;;;;8403525;28;19934;-67
2022/03/19 04:58:18;;;;;;;;;;;5.80;88.20;;;;;;8414065;28;19920;-68
2022/03/19 05:02:20;;;;;;;;;;;5.80;88.40;;;;;;8419428;28;19936;-67
2022/03/19 05:06:22;;;;;;;;;;;5.80;89.10;;;;;;8408355;28;19927;-68
2022/03/19 05:14:44;;;;;;;;;;;5.70;89.70;;;;;;8409091;28;19924;-68
2022/03/19 05:18:45;;;;;;;;;;;5.70;89.50;;;;;;8417853;28;19959;-68
2022/03/19 05:22:47;;;;;;;;;;;5.60;89.80;;;;;;8406781;28;19920;-68
2022/03/19 05:26:49;;;;;;;;;;;5.60;90.00;;;;;;8415340;28;19924;-68
2022/03/19 05:30:51;;;;;;;;;;;5.60;90.00;;;;;;8417803;28;20368;-68
2022/03/19 05:34:54;;;;;;;;;;;5.50;90.20;;;;;;8404786;28;19920;-67
2022/03/19 05:38:56;;;;;;;;;;;5.50;90.40;;;;;;8394610;28;19924;-67
2022/03/19 05:42:58;;;;;;;;;;;5.40;90.50;;;;;;8403885;28;19920;-68
2022/03/19 05:46:59;;;;;;;;;;;5.40;90.70;;;;;;8407210;28;20335;-68
2022/03/19 05:51:01;;;;;;;;;;;5.40;90.80;;;;;;8400712;28;19924;-68
2022/03/19 05:55:09;;;;;;;;;;;5.30;90.80;;;;;;8418977;28;21378;-68
2022/03/19 05:59:10;;;;;;;;;;;5.30;91.00;;;;;;8416733;28;19927;-68
2022/03/19 06:03:12;;;;;;;;;;;5.30;91.20;;;;;;8400532;28;20403;-68
2022/03/19 06:07:13;;;;;;;;;;;5.30;91.30;;;;;;8387346;28;19971;-68
2022/03/19 06:11:15;;;;;;;;;;;5.30;91.40;;;;;;8417895;28;19931;-68
2022/03/19 06:15:17;;;;;;;;;;;5.30;91.70;;;;;;8413202;28;20414;-68
2022/03/19 06:19:19;;;;;;;;;;;5.30;91.90;;;;;;8425397;28;19971;-68
2022/03/19 06:23:20;;;;;;;;;;;5.40;92.20;;;;;;8428680;28;20007;-68
2022/03/19 06:27:22;;;;;;;;;;;5.40;92.00;;;;;;8403786;28;20262;-68
2022/03/19 06:31:24;;;;;;;;;;;5.50;92.30;;;;;;8405633;28;20387;-68
2022/03/19 06:39:47;;;;;;;;;;;5.70;93.00;;;;;;8419190;28;20019;-67
2022/03/19 06:43:49;;;;;;;;;;;5.80;93.00;;;;;;8416778;28;20368;-66
2022/03/19 06:47:51;;;;;;;;;;;5.90;93.30;;;;;;8419305;28;19925;-66
2022/03/19 06:51:52;;;;;;;;;;;6.00;93.50;;;;;;8399946;28;19955;-66
2022/03/19 06:55:55;;;;;;;;;;;6.10;93.50;;;;;;8397839;28;19928;-66
2022/03/19 06:59:56;;;;;;;;;;;6.30;93.60;;;;;;8412254;28;20011;-66
2022/03/19 07:03:58;;;;;;;;;;;6.40;93.70;;;;;;8413894;28;19982;-66
2022/03/19 07:08:00;;;;;;;;;;;6.50;93.90;;;;;;8404874;28;19925;-66
2022/03/19 07:12:03;;;;;;;;;;;6.70;93.90;;;;;;8407578;28;19931;-66
2022/03/19 07:16:06;;;;;;;;;;;6.80;93.80;;;;;;8423719;28;19940;-66
2022/03/19 07:20:09;;;;;;;;;;;7.00;94.10;;;;;;8420554;28;20473;-66
2022/03/19 07:24:11;;;;;;;;;;;7.10;94.10;;;;;;8413899;28;19931;-66
2022/03/19 07:28:13;;;;;;;;;;;7.20;94.30;;;;;;8416557;28;19947;-66
2022/03/19 07:32:15;;;;;;;;;;;7.30;94.50;;;;;;8424470;28;19969;-66
2022/03/19 07:36:19;;;;;;;;;;;7.50;94.50;;;;;;8415452;28;19996;-66
2022/03/19 07:44:41;;;;;;;;;;;7.70;94.80;;;;;;8411085;28;19932;-66
2022/03/19 07:48:44;;;;;;;;;;;7.90;95.00;;;;;;8417484;28;20023;-66
2022/03/19 07:53:05;;;;;;;;;;;8.00;95.20;;;;;;8410140;28;19962;-66
2022/03/19 07:57:11;;;;;;;;;;;8.10;95.50;;;;;;8415099;28;19975;-66
2022/03/19 08:01:12;;;;;;;;;;;8.30;95.40;;;;;;8413257;28;19982;-66
2022/03/19 08:05:14;;;;;;;;;;;8.40;95.40;;;;;;8411423;28;20000;-66
2022/03/19 08:09:15;;;;;;;;;;;8.60;95.50;;;;;;8416430;28;19924;-66
2022/03/19 08:13:17;;;;;;;;;;;8.80;95.80;;;;;;8393542;28;20426;-66
2022/03/19 08:17:19;;;;;;;;;;;8.90;95.80;;;;;;8399292;28;19931;-66
2022/03/19 08:21:20;;;;;;;;;;;9.10;95.50;;;;;;8423196;28;19932;-66
2022/03/19 08:25:22;;;;;;;;;;;9.20;95.40;;;;;;8431552;28;20291;-66
2022/03/19 08:29:25;;;;;;;;;;;9.40;95.20;;;;;;8432047;28;19935;-67
2022/03/19 08:33:26;;;;;;;;;;;9.60;95.30;;;;;;8423132;28;19991;-67
2022/03/19 08:37:28;;;;;;;;;;;9.80;95.20;;;;;;8430857;28;19967;-67
2022/03/19 08:41:30;;;;;;;;;;;10.00;94.60;;;;;;8428123;28;19935;-67
2022/03/19 08:45:32;;;;;;;;;;;10.20;94.60;;;;;;8421172;28;19924;-67
2022/03/19 08:49:33;;;;;;;;;;;10.40;94.60;;;;;;8425964;28;19968;-67
2022/03/19 08:53:35;;;;;;;;;;;10.50;94.40;;;;;;8416812;28;20011;-67
2022/03/19 08:57:37;;;;;;;;;;;10.70;94.30;;;;;;8419754;28;19924;-67
2022/03/19 09:01:39;;;;;;;;;;;10.90;94.30;;;;;;8407524;28;19964;-67
2022/03/19 09:05:41;;;;;;;;;;;11.10;94.20;;;;;;8426288;28;19981;-67
2022/03/19 09:09:42;;;;;;;;;;;11.20;93.50;;;;;;8421754;28;19968;-67
2022/03/19 09:14:05;;;;;;;;;;;11.40;93.80;;;;;;8424314;28;19924;-67
2022/03/19 09:18:06;;;;;;;;;;;11.60;94.00;;;;;;8428127;28;20296;-67
2022/03/19 09:22:08;;;;;;;;;;;11.80;93.70;;;;;;8415865;28;20667;-67
2022/03/19 09:26:10;;;;;;;;;;;12.00;93.30;;;;;;8432244;28;19947;-67
2022/03/19 09:30:11;;;;;;;;;;;12.20;93.40;;;;;;8430040;28;20008;-67
2022/03/19 09:34:13;;;;;;;;;;;12.30;92.80;;;;;;8427224;28;19924;-67
2022/03/19 09:38:15;;;;;;;;;;;12.40;91.80;;;;;;8425908;28;19997;-67
2022/03/19 09:42:17;;;;;;;;;;;12.50;91.70;;;;;;8396416;28;20307;-67
2022/03/19 09:46:18;;;;;;;;;;;12.60;91.40;;;;;;8412846;28;20035;-67
2022/03/19 09:50:21;;;;;;;;;;;12.80;91.50;;;;;;8415059;28;19924;-67
2022/03/19 09:54:22;;;;;;;;;;;13.00;90.90;;;;;;8400446;28;20391;-67
2022/03/19 09:58:24;;;;;;;;;;;13.20;90.30;;;;;;8411493;28;19967;-67
2022/03/19 10:02:26;;;;;;;;;;;13.40;87.00;;;;;;8413377;28;19931;-67
2022/03/19 10:10:48;;;;;;;;;;;14.10;89.60;;;;;;8418000;28;19976;-67
2022/03/19 10:14:51;;;;;;;;;;;14.60;89.70;;;;;;8422279;28;20018;-67
2022/03/19 10:19:01;;;;;;;;;;;15.00;89.00;;;;;;8401916;28;20466;-67
2022/03/19 10:23:03;;;;;;;;;;;15.30;90.80;;;;;;8416630;28;19928;-67
2022/03/19 10:27:16;;;;;;;;;;;15.50;92.30;;;;;;8402140;28;20330;-67
2022/03/19 10:31:33;;;;;;;;;;;15.70;91.50;;;;;;8417946;28;19928;-67
2022/03/19 10:35:35;;;;;;;;;;;15.80;91.50;;;;;;8422315;28;19943;-67
2022/03/19 10:39:44;;;;;;;;;;;15.90;93.70;;;;;;8427852;28;19950;-68
2022/03/19 10:43:46;;;;;;;;;;;16.20;93.30;;;;;;8413328;28;19959;-67
2022/03/19 10:47:48;;;;;;;;;;;16.20;92.80;;;;;;8391247;28;19985;-67
2022/03/19 10:51:51;;;;;;;;;;;16.10;87.30;;;;;;8407775;28;19932;-67
2022/03/19 10:55:53;;;;;;;;;;;16.20;84.10;;;;;;8397545;28;19970;-67
2022/03/19 10:59:55;;;;;;;;;;;16.50;87.20;;;;;;8402476;28;19931;-67
2022/03/19 11:03:57;;;;;;;;;;;16.70;87.20;;;;;;8421029;28;19964;-67
2022/03/19 11:08:01;;;;;;;;;;;17.00;88.80;;;;;;8404898;28;19928;-67
2022/03/19 11:12:04;;;;;;;;;;;17.40;91.70;;;;;;8400885;28;19924;-67
2022/03/19 11:16:06;;;;;;;;;;;17.90;91.40;;;;;;8409792;28;20014;-67
2022/03/19 11:20:09;;;;;;;;;;;18.20;90.30;;;;;;8410976;28;20562;-67
2022/03/19 11:24:15;;;;;;;;;;;18.50;88.70;;;;;;8390642;28;20317;-67
2022/03/19 11:28:17;;;;;;;;;;;18.70;89.10;;;;;;8378223;28;20027;-67
2022/03/19 11:32:22;;;;;;;;;;;19.10;92.10;;;;;;8404134;28;19924;-67
2022/03/19 11:36:24;;;;;;;;;;;19.50;91.50;;;;;;8400898;28;20379;-67
2022/03/19 11:40:29;;;;;;;;;;;19.60;89.50;;;;;;8405602;28;19979;-67
2022/03/19 11:44:49;;;;;;;;;;;19.70;90.80;;;;;;8396458;28;20027;-67
2022/03/19 11:48:51;;;;;;;;;;;20.00;92.10;;;;;;8392692;28;19931;-67
2022/03/19 11:52:53;;;;;;;;;;;20.20;90.80;;;;;;8407354;28;19932;-67
2022/03/19 11:56:55;;;;;;;;;;;20.40;91.40;;;;;;8396859;28;19971;-68
2022/03/19 12:01:00;;;;;;;;;;;20.80;90.20;;;;;;8423537;28;20387;-67
2022/03/19 12:05:14;;;;;;;;;;;20.90;85.20;;;;;;8426509;28;20328;-67
2022/03/19 12:09:16;;;;;;;;;;;20.90;86.70;;;;;;8418360;28;19932;-67
2022/03/19 12:13:37;;;;;;;;;;;21.20;88.20;;;;;;8425739;28;19963;-68
2022/03/19 12:17:38;;;;;;;;;;;21.50;82.80;;;;;;8411334;28;19975;-68
2022/03/19 12:21:43;;;;;;;;;;;21.50;84.20;;;;;;8416928;28;19972;-68
2022/03/19 12:25:49;;;;;;;;;;;21.40;76.60;;;;;;8396078;28;19961;-67
2022/03/19 12:29:50;;;;;;;;;;;21.10;73.70;;;;;;8414078;28;19924;-67
2022/03/19 12:33:52;;;;;;;;;;;21.30;68.50;;;;;;8410346;28;19924;-67
2022/03/19 12:37:56;;;;;;;;;;;21.30;70.20;;;;;;8428245;28;19970;-67
2022/03/19 12:41:58;;;;;;;;;;;20.80;65.10;;;;;;8416799;28;19967;-68
2022/03/19 12:46:08;;;;;;;;;;;20.90;61.90;;;;;;8420584;28;19928;-67
2022/03/19 12:50:09;;;;;;;;;;;21.20;60.00;;;;;;8421546;28;19924;-67
2022/03/19 12:54:18;;;;;;;;;;;21.20;61.10;;;;;;8396955;28;20382;-67
2022/03/19 12:58:20;;;;;;;;;;;20.90;64.10;;;;;;8417437;28;19990;-67
2022/03/19 13:02:23;;;;;;;;;;;20.50;58.40;;;;;;8418002;28;19991;-67
2022/03/19 13:06:28;;;;;;;;;;;20.00;53.60;;;;;;8419400;28;19975;-67
2022/03/19 13:10:39;;;;;;;;;;;19.60;47.70;;;;;;8413862;28;19935;-69
2022/03/19 13:14:46;;;;;;;;;;;19.00;44.50;;;;;;8416702;28;19973;-70
2022/03/19 13:18:48;;;;;;;;;;;18.70;44.80;;;;;;8400125;28;20019;-70
2022/03/19 13:22:57;;;;;;;;;;;18.60;43.40;;;;;;8423155;28;20417;-70
2022/03/19 13:26:58;;;;;;;;;;;18.50;43.20;;;;;;8409088;28;19975;-70
2022/03/19 13:31:00;;;;;;;;;;;18.50;44.20;;;;;;8404262;28;19959;-70
2022/03/19 13:35:02;;;;;;;;;;;18.50;43.90;;;;;;8398623;28;20034;-70
2022/03/19 13:39:04;;;;;;;;;;;18.60;43.30;;;;;;8419661;28;19924;-70
2022/03/19 13:43:05;;;;;;;;;;;18.60;42.30;;;;;;8419485;28;19985;-70
2022/03/19 13:47:14;;;;;;;;;;;18.60;41.70;;;;;;8420882;28;19928;-70
2022/03/19 13:51:16;;;;;;;;;;;18.40;43.60;;;;;;8413086;28;19975;-70
2022/03/19 13:55:21;;;;;;;;;;;18.20;43.10;;;;;;8415972;28;20554;-70
2022/03/19 13:59:31;;;;;;;;;;;18.10;42.90;;;;;;8423588;28;20024;-70
2022/03/19 14:03:32;;;;;;;;;;;18.10;42.20;;;;;;8420786;28;19928;-70
2022/03/19 14:07:36;;;;;;;;;;;17.90;41.00;;;;;;8418904;28;20377;-70
2022/03/19 14:11:38;;;;;;;;;;;17.80;41.20;;;;;;8414663;28;19951;-70
2022/03/19 14:15:41;;;;;;;;;;;17.70;40.10;;;;;;8399205;28;19924;-70
2022/03/19 14:19:43;;;;;;;;;;;17.80;40.30;;;;;;8408919;28;19964;-70
2022/03/19 14:23:45;;;;;;;;;;;18.10;41.70;;;;;;8403374;28;19978;-70
2022/03/19 14:27:47;;;;;;;;;;;19.10;43.00;;;;;;8414241;28;19932;-70
2022/03/19 14:31:56;;;;;;;;;;;20.20;48.30;;;;;;8406742;28;19932;-70
2022/03/19 14:36:03;;;;;;;;;;;21.40;52.00;;;;;;8404835;28;19931;-70
2022/03/19 14:40:05;;;;;;;;;;;22.40;51.80;;;;;;8371667;28;19967;-70
2022/03/19 14:44:06;;;;;;;;;;;22.80;53.90;;;;;;8390615;28;20126;-71
2022/03/19 14:48:08;;;;;;;;;;;22.90;49.30;;;;;;8389216;28;20016;-71
2022/03/19 14:52:09;;;;;;;;;;;22.90;47.80;;;;;;8384364;28;20020;-71
2022/03/19 14:56:12;;;;;;;;;;;22.80;45.60;;;;;;8385631;28;19928;-71
2022/03/19 15:00:13;;;;;;;;;;;22.60;45.10;;;;;;8386249;28;20035;-70
2022/03/19 15:04:15;;;;;;;;;;;22.80;46.20;;;;;;8386477;28;19936;-70
2022/03/19 15:08:35;;;;;;;;;;;23.10;44.10;;;;;;8381821;28;19932;-71
2022/03/19 15:12:39;;;;;;;;;;;23.10;42.80;;;;;;8384206;28;19932;-71
2022/03/19 15:16:41;;;;;;;;;;;23.10;43.20;;;;;;8385865;28;20035;-70
2022/03/19 15:20:43;;;;;;;;;;;23.30;44.20;;;;;;8386933;28;20269;-70
2022/03/19 15:24:45;;;;;;;;;;;23.30;42.50;;;;;;8371825;28;19929;-71
2022/03/19 15:28:46;;;;;;;;;;;23.00;40.70;;;;;;8389507;28;19971;-70
2022/03/19 15:32:50;;;;;;;;;;;22.30;37.70;;;;;;8384946;28;20478;-70
2022/03/19 15:36:52;;;;;;;;;;;21.90;39.40;;;;;;8384929;28;19924;-71
2022/03/19 15:40:54;;;;;;;;;;;21.90;39.20;;;;;;8380588;28;20388;-70
2022/03/19 15:44:55;;;;;;;;;;;21.90;38.90;;;;;;8378941;28;20026;-70
2022/03/19 15:48:57;;;;;;;;;;;21.80;38.10;;;;;;8383797;28;19974;-71
2022/03/19 15:52:59;;;;;;;;;;;21.70;37.90;;;;;;8389775;28;20022;-70
2022/03/19 15:57:00;;;;;;;;;;;21.70;38.20;;;;;;8390663;28;20015;-70
2022/03/19 16:01:03;;;;;;;;;;;21.50;37.70;;;;;;8384157;28;19979;-70
2022/03/19 16:05:05;;;;;;;;;;;21.60;37.20;;;;;;8392433;28;20315;-70
2022/03/19 16:09:06;;;;;;;3.45;1.08;;;21.20;35.50;;;;;;8371725;28;20341;-70
2022/03/19 16:13:09;;;;;;;4.47;1.23;;;20.60;33.90;;;;;;8385690;28;20135;-70
2022/03/19 16:17:11;;;;;;;4.38;1.20;;;20.40;34.00;;;;;;8393224;28;20059;-70
2022/03/19 16:21:13;;;;;;;3.17;1.00;;;20.50;34.30;;;;;;8393090;28;20033;-70
2022/03/19 16:25:15;;;;;;;4.63;1.20;;;20.80;34.40;;;;;;8390861;28;20122;-70
2022/03/19 16:29:17;;;;;;;3.60;1.20;;;20.70;33.60;;;;;;8389906;28;20248;-70
2022/03/19 16:33:19;;;;;;;;;;;20.50;33.60;;;;;;8391424;28;20087;-70
2022/03/19 16:37:28;;;;;;;;;;;20.20;33.30;;;;;;8389385;28;19971;-70
2022/03/19 16:41:30;;;;;;;;;;;19.80;33.20;;;;;;8388624;28;19921;-70
2022/03/19 16:45:31;;;;;;;;;;;19.80;33.70;;;;;;8390510;28;20391;-70
2022/03/19 16:49:33;;;;;;;;;;;20.10;34.50;;;;;;8390460;28;19964;-70
2022/03/19 16:53:35;;;;;;;;;;;20.20;34.10;;;;;;8387268;28;19935;-70
2022/03/19 16:57:36;;;;;;;;;;;19.90;33.60;;;;;;8392682;28;19959;-70
2022/03/19 17:01:38;;;;;;;;;;;19.70;34.20;;;;;;8388478;28;19935;-70
2022/03/19 17:05:41;;;;;;;;;;;19.30;34.00;;;;;;8392387;28;19960;-70
2022/03/19 17:09:42;;;;;;;;;;;18.80;33.90;;;;;;8389708;28;19966;-70
2022/03/19 17:13:44;;;;;;;;;;;18.10;33.80;;;;;;8388542;28;19964;-70
2022/03/19 17:17:45;;;;;;;;;;;17.80;34.00;;;;;;8391222;28;20359;-70
2022/03/19 17:21:47;;;;;;;;;;;17.60;34.20;;;;;;8371853;28;19924;-70
2022/03/19 17:25:49;;;;;;;;;;;17.50;34.50;;;;;;8389399;28;19921;-70
2022/03/19 17:29:51;;;;;;;;;;;17.10;34.70;;;;;;8388792;28;19921;-70
2022/03/19 17:33:52;;;;;;;;;;;16.60;34.50;;;;;;8405920;28;20020;-70
2022/03/19 17:37:54;;;;;;;;;;;16.20;34.70;;;;;;8389293;28;20327;-70
2022/03/19 17:41:58;;;;;;;;;;;15.80;35.30;;;;;;8384949;28;19970;-70
2022/03/19 17:46:00;;;;;;;;;;;15.40;34.80;;;;;;8392426;28;19967;-70
2022/03/19 17:50:02;;;;;;;;;;;15.00;35.10;;;;;;8386217;28;19931;-70
2022/03/19 17:54:04;;;;;;;;;;;14.60;35.10;;;;;;8384180;28;19924;-70
2022/03/19 17:58:05;;;;;;;;;;;14.30;36.00;;;;;;8386470;28;20389;-70
2022/03/19 18:02:08;;;;;;;;;;;14.00;36.50;;;;;;8386012;28;20252;-70
2022/03/19 18:06:10;;;;;;;;;;;13.70;36.70;;;;;;8391612;28;19920;-70
2022/03/19 18:10:12;;;;;;;;;;;13.50;35.90;;;;;;8388262;28;19923;-70
2022/03/19 18:14:16;;;;;;;;;;;13.40;35.70;;;;;;8392312;28;19979;-70
2022/03/19 18:18:17;;;;;;;;;;;13.30;36.10;;;;;;8394831;28;20039;-70
2022/03/19 18:22:19;;;;;;;;;;;13.30;35.70;;;;;;8393388;28;19939;-70
2022/03/19 18:26:20;;;;;;;;;;;13.10;35.60;;;;;;8396781;28;20085;-71
2022/03/19 18:30:23;;;;;;;;;;;13.10;35.60;;;;;;8382956;28;19921;-70
2022/03/19 18:34:25;;;;;;;;;;;13.00;35.80;;;;;;8383947;28;19939;-70
2022/03/19 18:38:27;;;;;;;;;;;12.80;35.90;;;;;;8386818;28;20320;-70
2022/03/19 18:42:34;;;;;;;;;;;12.70;36.00;;;;;;8385620;28;19971;-70
2022/03/19 18:46:36;;;;;;;;;;;12.60;35.90;;;;;;8392683;28;19924;-70
2022/03/19 18:50:38;;;;;;;;;;;12.50;36.30;;;;;;8388275;28;19924;-70
2022/03/19 18:54:42;;;;;;;;;;;12.40;36.20;;;;;;8373923;28;19959;-70
2022/03/19 18:58:44;;;;;;;;;;;12.30;36.20;;;;;;8371332;28;19968;-70
2022/03/19 19:02:46;;;;;;;;;;;12.20;36.80;;;;;;8387921;28;19979;-70
2022/03/19 19:06:47;;;;;;;;;;;12.10;36.70;;;;;;8388823;28;20402;-70
2022/03/19 19:10:49;;;;;;;;;;;12.00;37.50;;;;;;8390773;28;19930;-70
2022/03/19 19:14:54;;;;;;;;;;;11.80;38.60;;;;;;8390665;28;20022;-70
2022/03/19 19:18:57;;;;;;;;;;;11.70;38.40;;;;;;8395167;28;19920;-69
2022/03/19 19:22:58;;;;;;;;;;;11.60;38.10;;;;;;8399266;28;20010;-70
2022/03/19 19:27:00;;;;;;;;;;;11.50;38.20;;;;;;8394838;28;20331;-70
2022/03/19 19:31:04;;;;;;;;;;;11.40;38.60;;;;;;8392573;28;20272;-69
2022/03/19 19:35:06;;;;;;;;;;;11.40;39.00;;;;;;8397702;28;19927;-70
2022/03/19 19:39:09;;;;;;;;;;;11.30;39.20;;;;;;8392435;28;20016;-70
2022/03/19 19:43:11;;;;;;;;;;;11.20;39.00;;;;;;8402158;28;19992;-70
2022/03/19 19:47:13;;;;;;;;;;;11.10;38.30;;;;;;8395222;28;19924;-69
2022/03/19 19:51:14;;;;;;;;;;;11.10;38.00;;;;;;8388329;28;20019;-70
2022/03/19 19:55:16;;;;;;;;;;;11.10;38.20;;;;;;8400234;28;19924;-70
2022/03/19 19:59:17;;;;;;;;;;;11.00;37.60;;;;;;8398044;28;19966;-70
2022/03/19 20:03:19;;;;;;;;;;;10.90;37.70;;;;;;8402537;28;20439;-70
2022/03/19 20:07:39;;;;;;;;;;;10.80;38.10;;;;;;8393298;28;19921;-71
2022/03/19 20:11:41;;;;;;;;;;;10.70;38.70;;;;;;8403098;28;19934;-69
2022/03/19 20:15:43;;;;;;;;;;;10.50;38.70;;;;;;8387653;28;20011;-70
2022/03/19 20:19:45;;;;;;;;;;;10.40;40.30;;;;;;8379886;28;19967;-69
2022/03/19 20:23:46;;;;;;;;;;;10.40;40.60;;;;;;8398075;28;19921;-69
2022/03/19 20:27:50;;;;;;;;;;;10.20;40.50;;;;;;8393361;28;19957;-70
2022/03/19 20:31:51;;;;;;;;;;;10.20;40.90;;;;;;8399432;28;19927;-70
2022/03/19 20:35:53;;;;;;;;;;;10.10;41.20;;;;;;8401457;28;19924;-70
2022/03/19 20:39:54;;;;;;;;;;;10.10;40.60;;;;;;8396953;28;23927;-70
2022/03/19 20:43:56;;;;;;;;;;;10.00;41.10;;;;;;8393003;28;20010;-70
2022/03/19 20:47:58;;;;;;;;;;;10.00;40.50;;;;;;8398591;28;19969;-70
2022/03/19 20:52:00;;;;;;;;;;;9.90;41.50;;;;;;8396319;28;19927;-69
2022/03/19 20:56:03;;;;;;;;;;;9.80;41.40;;;;;;8396314;28;20374;-69
2022/03/19 21:00:06;;;;;;;;;;;9.70;41.40;;;;;;8401515;28;20360;-70
2022/03/19 21:04:08;;;;;;;;;;;9.60;41.80;;;;;;8396939;28;19927;-70
2022/03/19 21:08:11;;;;;;;;;;;9.50;41.70;;;;;;8392922;28;20344;-70
2022/03/19 21:12:13;;;;;;;;;;;9.40;42.70;;;;;;8392269;28;19924;-70
2022/03/19 21:16:16;;;;;;;;;;;9.40;42.30;;;;;;8398440;28;19966;-70
2022/03/19 21:20:25;;;;;;;;;;;9.30;42.30;;;;;;8408837;28;20282;-71
2022/03/19 21:24:26;;;;;;;;;;;9.20;43.70;;;;;;8390489;28;19995;-70
2022/03/19 21:28:28;;;;;;;;;;;9.10;43.20;;;;;;8409820;28;19971;-69
2022/03/19 21:32:30;;;;;;;;;;;9.10;43.10;;;;;;8400095;28;20474;-70
2022/03/19 21:36:32;;;;;;;;;;;9.00;43.30;;;;;;8397825;28;19924;-70
2022/03/19 21:40:49;;;;;;;;;;;9.00;43.10;;;;;;8349696;28;1712945;-70
2022/03/19 21:44:51;;;;;;;;;;;8.90;44.20;;;;;;8400561;28;19935;-69
2022/03/19 21:48:53;;;;;;;;;;;8.80;44.10;;;;;;8398037;28;19924;-70
2022/03/19 21:52:54;;;;;;;;;;;8.80;45.90;;;;;;8398259;28;20355;-70
2022/03/19 21:56:56;;;;;;;;;;;8.70;44.90;;;;;;8402005;28;20032;-70
2022/03/19 22:00:57;;;;;;;;;;;8.70;45.00;;;;;;8398903;28;19960;-70
2022/03/19 22:04:59;;;;;;;;;;;8.70;44.90;;;;;;8402966;28;19932;-70
2022/03/19 22:09:01;;;;;;;;;;;8.60;44.50;;;;;;8420338;28;20046;-70
2022/03/19 22:13:02;;;;;;;;;;;8.60;44.70;;;;;;8408365;28;19925;-70
2022/03/19 22:17:06;;;;;;;;;;;8.60;44.10;;;;;;8428403;28;19943;-70
2022/03/19 22:21:08;;;;;;;;;;;8.50;44.30;;;;;;8422733;28;19924;-70
2022/03/19 22:25:10;;;;;;;;;;;8.40;44.30;;;;;;8410061;28;19960;-70
2022/03/19 22:29:12;;;;;;;;;;;8.30;44.80;;;;;;8403705;28;20376;-70
2022/03/19 22:33:14;;;;;;;;;;;8.30;45.70;;;;;;8432557;28;19966;-69
2022/03/19 22:37:15;;;;;;;;;;;8.20;46.30;;;;;;8432412;28;20359;-69
2022/03/19 22:41:18;;;;;;;;;;;8.10;45.10;;;;;;8432531;28;20033;-70
2022/03/19 22:45:20;;;;;;;;;;;8.10;45.40;;;;;;8415995;28;20062;-70
2022/03/19 22:49:22;;;;;;;;;;;8.00;45.30;;;;;;8394971;28;19924;-70
2022/03/19 22:53:24;;;;;;;;;;;8.00;45.60;;;;;;8409027;28;19939;-70
2022/03/19 22:57:26;;;;;;;;;;;7.90;46.20;;;;;;8423750;28;19931;-70
2022/03/19 23:01:28;;;;;;;;;;;7.80;46.10;;;;;;8421907;28;20276;-70
2022/03/19 23:05:31;;;;;;;;;;;7.80;45.70;;;;;;8424496;28;20376;-70
2022/03/19 23:09:33;;;;;;;;;;;7.70;45.50;;;;;;8423015;28;20355;-69
2022/03/19 23:13:37;;;;;;;;;;;7.70;46.10;;;;;;8429874;28;20021;-69
2022/03/19 23:17:38;;;;;;;;;;;7.60;47.10;;;;;;8426799;28;20407;-70
2022/03/19 23:21:41;;;;;;;;;;;7.50;46.50;;;;;;8410838;28;19971;-70
2022/03/19 23:25:43;;;;;;;;;;;7.50;46.90;;;;;;8400346;28;19978;-70
2022/03/19 23:29:45;;;;;;;;;;;7.40;47.70;;;;;;8418991;28;19978;-70
2022/03/19 23:33:47;;;;;;;;;;;7.30;48.10;;;;;;8419793;28;19932;-70
2022/03/19 23:37:48;;;;;;;;;;;7.30;49.30;;;;;;8397959;28;20014;-70
2022/03/19 23:41:50;;;;;;;;;;;7.20;49.40;;;;;;8413185;28;20295;-70
2022/03/19 23:45:52;;;;;;;;;;;7.10;49.60;;;;;;8419248;28;19959;-70
2022/03/19 23:49:54;;;;;;;;;;;7.10;50.20;;;;;;8416282;28;19924;-70
2022/03/19 23:53:56;;;;;;;;;;;7.10;50.60;;;;;;8414629;28;19931;-70
2022/03/19 23:57:57;;;;;;;;;;;7.00;51.20;;;;;;8407894;28;20023;-70
